Logo AVAMET
Benvolgut visitant, si us plau, ingressa Recuperar contrasenya

Xacarella El Copo

Dades diàries. Acumulats / Últims 30 dies disponibles

Data Temperatura (°C) Humitat rel. (%) Pressió rel. (hPa) Vent (km/h) Precipitació
Mínima Mitjana Màxima Amplitud
tèrmica
Mínima Mitjana Màxima Mínima Mitjana Màxima Predom. Mitjana Ràfega
màxima
Total
(mm)
Índex-n
Mínima Mitjana Màxima Mínima Mitjana Màxima n
0 a 1
P0 max
mm 5'
Dades mensuals acumulades fins l'últim dia disponible
12/2019 7,6 10,5 12,2 12,8 14,1 16,1 20,3 12,7 49 85 94 1.001 1.008 1.013   9,9 59,5 31,2
Dades anuals acumulades fins l'últim dia disponible
2019 0,8 13,9 25,3 19,1 12,4 24,7 40,8 40,0 14 65 97 992 1.014 1.032   8,8 83,7 405,0
Últims 30 dies disponibles
04-12-2019 11,2     12,4     14,2 3,0 77 84 91 1.001 1.003 1.005 O 9,0 49,9 6,6 0,18 0,60
03-12-2019 11,1     12,2     14,1 3,0 76 89 94 1.009 1.011 1.013 E 18,1 59,5 18,4 0,70 7,00
02-12-2019 12,2     13,7     15,6 3,4 78 86 94 1.008 1.010 1.012 E 8,1 33,8 6,2 0,74 3,70
01-12-2019 7,6     12,8     20,3 12,7 49 83 94 1.008 1.010 1.012 SSE 4,3 20,9 0,0
30-11-2019 11,1     16,0     21,7 10,6 56 74 91 1.013 1.017 1.019 O 9,9 32,2 0,0
29-11-2019 12,7     17,0     22,7 10,0 50 64 78 1.015 1.017 1.019 ONO 12,8 45,1 0,0
28-11-2019 9,1     14,9     20,9 11,8 47 66 83 1.013 1.015 1.016 OSO 6,3 29,0 0,0
27-11-2019 10,2     16,6     23,0 12,8 40 66 92 1.008 1.010 1.013 O 8,1 32,2 0,0
26-11-2019 10,1     15,5     21,8 11,7 51 74 88 1.009 1.011 1.014 OSO 6,7 32,2 0,0
25-11-2019 11,8     16,4     21,8 10,0 53 61 75 1.011 1.012 1.014 O 12,0 43,5 0,0
24-11-2019 12,1     14,2     16,6 4,5 45 52 57 1.008 1.011 1.013 NO 19,4 51,5 0,0
23-11-2019 11,0     14,8     18,0 7,0 36 56 95 992 999 1.007 ONO 17,7 82,1 0,0
22-11-2019 8,1     11,8     15,3 7,2 86 92 95 994 1.001 1.006 SO 5,0 41,8 8,2 0,20 0,80
21-11-2019 7,0     11,5     16,5 9,5 62 81 93 1.006 1.007 1.009 SSO 3,5 19,3 0,2
20-11-2019 6,2     11,0     16,3 10,1 53 75 90 1.008 1.010 1.013 SO 4,1 24,1 0,0
19-11-2019 8,2     11,4     16,3 8,1 40 59 84 1.013 1.014 1.016 O 10,1 38,6 0,0
18-11-2019 9,6     12,6     16,8 7,2 44 64 93 1.005 1.009 1.015 O 12,1 40,2 1,0
17-11-2019 7,9     11,9     17,4 9,5 38 52 72 1.007 1.012 1.014 O 10,4 38,6 0,0
16-11-2019 8,7     11,9     15,8 7,1 35 49 61 1.005 1.009 1.014 ONO 13,2 40,2 0,0
15-11-2019 7,4     11,6     15,1 7,7 39 55 79 1.000 1.003 1.005 ONO 12,5 46,7 0,0
14-11-2019 9,8     12,7     17,3 7,5 46 70 93 998 1.002 1.009 OSO 9,0 67,6 0,6
13-11-2019 10,9     17,0     23,2 12,3 41 57 85 1.004 1.007 1.010 OSO 10,0 53,1 0,0
12-11-2019 11,5     15,3     19,2 7,7 32 43 57 1.009 1.010 1.011 ONO 14,4 45,1 0,0
11-11-2019 9,2     14,1     17,9 8,7 39 50 60 1.010 1.012 1.013 ONO 17,3 48,3 0,0
10-11-2019 12,4     15,0     16,9 4,5 32 48 72 1.009 1.011 1.012 O 23,8 69,2 0,2
09-11-2019 12,1     15,2     19,4 7,3 31 47 73 1.013 1.016 1.019 ONO 16,1 43,5 0,0
08-11-2019 11,3     14,7     17,7 6,4 33 44 61 1.009 1.012 1.017 ONO 17,7 51,5 0,0
07-11-2019 9,8     15,9     22,0 12,2 40 56 71 1.006 1.009 1.012 O 10,8 49,9 0,0
06-11-2019 12,4     16,7     21,0 8,6 34 50 64 1.011 1.012 1.013 ONO 11,4 41,8 0,0
05-11-2019 15,0     17,9     20,6 5,6 37 51 72 1.005 1.008 1.012 ONO 15,6 54,7 0,0
Últims 13 mesos disponibles
11/2019 6,2 11,2 18,9 15,4 15,1 20,0 27,9 21,7 43 59 92 999 1.010 1.017 ONO 11,8 82,1 10,2
10/2019 11,9 17,3 24,1 22,1 22,1 27,3 34,5 22,6 37 70 86 1.008 1.015 1.019 SSW 7,3 41,8
09/2019 16,0 19,7 22,2 23,7 21,4 28,7 33,9 17,9 45 76 91 1.008 1.014 1.019 SSW 7,5 56,3 189,4
08/2019 19,1 21,5 25,1 26,4 23,8 31,9 40,8 21,7 50 73 93 1.008 1.013 1.017 SSW 7,8 45,1 33,2
07/2019 18,6 21,3 25,3 27,0 29,1 32,7 39,5 20,9 32 64 76 1.004 1.011 1.017 ESE 9,2 54,7 0,0
06/2019 11,9 16,9 21,2 23,1 23,4 28,9 35,1 23,2 40 61 76 1.007 1.013 1.020 SSW 9,3 51,5 1,2
05/2019 10,9 13,9 19,6 19,4 19,8 24,9 31,1 20,2 46 67 79 1.004 1.013 1.023 S 8,8 51,5 1,8
04/2019 6,8 11,1 14,2 15,7 14,1 20,9 28,7 21,9 45 67 92 998 1.011 1.023 WNW 9,5 74,0 111,2
03/2019 3,8 7,5 13,1 13,9 13,7 20,5 28,4 24,6 39 63 90 1.009 1.020 1.028 SSW 7,7 57,9 19,4
02/2019 3,7 6,3 11,6 12,1 13,8 18,8 26,7 23,0 33 63 82 995 1.022 1.030 SSW 8,5 83,7 0,0
01/2019 0,8 6,1 12,2 11,5 12,4 17,1 22,8 22,0 39 57 82 1.002 1.016 1.029 WNW 9,2 66,0 2,6
Tots els anys disponibles
Temperatura (°C)
Humitat relativa (%)
Velocitat del vent i ràfega màxima (km/h)
Direcció del vent (°)
Pressió (hPa)
Precipitació (mm)
Nota sobre les dades: s'avisa a l'usuari de la provisionalitat i no oficialitat d'aquestes dades
Logo AVAMET blanc
Web allotjada a Sollutia
Llicència de Creative CommonsLa web d'AVAMET i els seus continguts estan subjectes a una llicència de
Reconeixement - No Comercial - Compartir igual
Últimes estacions: Aielo de Malferit - Centre (Soci), Faura (Inforatge), Benifairó de les Valls (Inforatge), Xàbia - Les Valls (Soci), Xàbia - Alt de la Granadella (Soci), Villena - Sierra de Salinas (Soci), Sueca - Centre (Inforatge) - - -